createdAt,value
2024-01-05T00:01:40.425Z,28.30
2024-01-05T00:04:07.250Z,25.20
2024-01-05T00:06:39.079Z,21.57
2024-01-05T00:09:07.326Z,21.80
2024-01-05T00:11:34.138Z,19.93
2024-01-05T00:14:00.878Z,22.30
2024-01-05T00:16:27.606Z,21.53
2024-01-05T00:18:54.439Z,22.10
2024-01-05T00:21:26.493Z,23.20
2024-01-05T00:23:56.733Z,16.57
2024-01-05T00:26:23.729Z,21.47
2024-01-05T00:28:54.585Z,38.70
2024-01-05T00:31:21.457Z,31.63
2024-01-05T00:33:48.419Z,30.27
2024-01-05T00:36:15.400Z,26.93
2024-01-05T00:38:48.458Z,21.50
2024-01-05T00:41:15.594Z,28.13
2024-01-05T00:43:43.505Z,22.43
2024-01-05T00:46:10.709Z,25.37
2024-01-05T00:48:38.028Z,30.90
2024-01-05T00:51:05.133Z,28.17
2024-01-05T00:53:31.875Z,28.03
2024-01-05T00:55:58.556Z,19.80
2024-01-05T00:58:25.273Z,21.57
2024-01-05T01:00:52.103Z,16.20
2024-01-05T01:03:18.986Z,14.40
2024-01-05T01:05:46.783Z,11.17
2024-01-05T01:08:16.313Z,18.27
2024-01-05T01:10:43.041Z,22.17
2024-01-05T01:13:11.486Z,18.83
2024-01-05T01:15:38.227Z,16.13
2024-01-05T01:18:05.668Z,13.67
2024-01-05T01:20:32.546Z,14.27
2024-01-05T01:22:59.230Z,14.27
2024-01-05T01:25:25.996Z,13.30
2024-01-05T01:27:52.709Z,16.30
2024-01-05T01:30:19.556Z,16.53
2024-01-05T01:32:46.420Z,13.17
2024-01-05T01:35:13.128Z,10.27
2024-01-05T01:37:39.893Z,10.67
2024-01-05T01:40:07.381Z,11.57
2024-01-05T01:42:34.353Z,8.87
2024-01-05T01:45:01.753Z,13.90
2024-01-05T01:47:29.632Z,11.67
2024-01-05T01:49:58.117Z,11.43
2024-01-05T01:52:25.817Z,15.43
2024-01-05T01:54:52.782Z,14.17
2024-01-05T01:57:20.223Z,12.20
2024-01-05T01:59:47.597Z,13.57
2024-01-05T02:02:14.987Z,15.60
2024-01-05T02:04:42.767Z,18.40
2024-01-05T02:07:09.829Z,15.10
2024-01-05T02:09:36.738Z,14.30
2024-01-05T02:12:03.920Z,13.57
2024-01-05T02:14:30.791Z,9.40
2024-01-05T02:16:57.569Z,12.97
2024-01-05T02:19:25.719Z,12.50
2024-01-05T02:21:56.174Z,13.27
2024-01-05T02:24:23.107Z,11.93
2024-01-05T02:26:50.442Z,10.70
2024-01-05T02:29:23.469Z,10.10
2024-01-05T02:31:51.862Z,9.93
2024-01-05T02:34:18.887Z,11.73
2024-01-05T02:36:45.965Z,16.67
2024-01-05T02:39:13.753Z,20.53
2024-01-05T02:41:40.529Z,21.87
2024-01-05T02:44:07.228Z,22.93
2024-01-05T02:46:36.607Z,16.63
2024-01-05T02:49:03.624Z,14.73
2024-01-05T02:51:30.657Z,13.10
2024-01-05T02:53:57.619Z,11.77
2024-01-05T02:56:24.534Z,10.77
2024-01-05T02:58:54.631Z,9.23
2024-01-05T03:01:21.513Z,11.13
2024-01-05T03:03:51.558Z,13.07
2024-01-05T03:06:20.409Z,24.50
2024-01-05T03:08:47.760Z,12.23
2024-01-05T03:11:14.599Z,10.20
2024-01-05T03:13:41.556Z,15.67
2024-01-05T03:16:08.814Z,12.70
2024-01-05T03:18:35.675Z,13.70
2024-01-05T03:21:02.777Z,12.13
2024-01-05T03:23:29.549Z,12.13
2024-01-05T03:25:58.153Z,22.93
2024-01-05T03:28:25.769Z,24.17
2024-01-05T03:30:53.365Z,21.10
2024-01-05T03:33:23.104Z,19.33
2024-01-05T03:35:49.937Z,19.43
2024-01-05T03:38:16.664Z,23.63
2024-01-05T03:40:43.670Z,26.40
2024-01-05T03:43:10.545Z,25.17
2024-01-05T03:45:37.849Z,31.07
2024-01-05T03:48:05.585Z,20.30
2024-01-05T03:50:36.451Z,19.07
2024-01-05T03:53:03.995Z,16.23
2024-01-05T03:55:30.686Z,13.70
2024-01-05T03:57:57.381Z,10.33
2024-01-05T04:00:24.092Z,12.83
2024-01-05T04:02:50.868Z,11.73
2024-01-05T04:05:17.713Z,13.13
2024-01-05T04:07:45.505Z,13.60
2024-01-05T04:10:12.362Z,14.70
2024-01-05T04:12:39.208Z,15.47
2024-01-05T04:15:06.753Z,14.30
2024-01-05T04:17:33.501Z,32.73
2024-01-05T04:20:00.260Z,22.00
2024-01-05T04:22:32.362Z,32.43
2024-01-05T04:25:00.095Z,18.87
2024-01-05T04:27:26.843Z,12.87
2024-01-05T04:29:53.632Z,14.07
2024-01-05T04:32:20.376Z,14.40
2024-01-05T04:34:47.191Z,14.77
2024-01-05T04:37:15.324Z,15.47
2024-01-05T04:39:44.475Z,20.20
2024-01-05T04:42:16.025Z,19.60
2024-01-05T04:44:43.725Z,21.90
2024-01-05T04:47:10.427Z,18.23
2024-01-05T04:49:37.187Z,14.97
2024-01-05T04:52:04.132Z,18.60
2024-01-05T04:54:30.954Z,18.87
2024-01-05T04:56:59.796Z,17.57
2024-01-05T04:59:29.344Z,22.70
2024-01-05T05:01:56.087Z,25.53
2024-01-05T05:04:22.765Z,25.13
2024-01-05T05:06:49.484Z,25.97
2024-01-05T05:09:16.176Z,25.80
2024-01-05T05:11:43.152Z,23.80
2024-01-05T05:14:10.112Z,15.83
2024-01-05T05:16:36.875Z,26.70
2024-01-05T05:19:05.591Z,22.53
2024-01-05T05:21:33.235Z,18.87
2024-01-05T05:24:00.104Z,20.40
2024-01-05T05:26:26.981Z,19.13
2024-01-05T05:28:54.026Z,26.03
2024-01-05T05:31:20.887Z,21.53
2024-01-05T05:33:51.172Z,24.67
2024-01-05T05:36:18.268Z,28.90
2024-01-05T05:38:46.193Z,27.20
2024-01-05T05:41:13.456Z,26.40
2024-01-05T05:43:41.495Z,22.50
2024-01-05T05:46:08.256Z,24.83
2024-01-05T05:48:36.605Z,28.53
2024-01-05T05:51:05.525Z,31.27
2024-01-05T05:53:32.695Z,38.00
2024-01-05T05:55:59.389Z,41.93
2024-01-05T05:58:27.502Z,34.23
2024-01-05T06:00:54.358Z,34.93
2024-01-05T06:03:24.411Z,34.60
2024-01-05T06:05:51.458Z,32.00
2024-01-05T06:08:18.158Z,32.97
2024-01-05T06:10:44.998Z,32.20
2024-01-05T06:13:12.061Z,30.30
2024-01-05T06:15:38.978Z,36.70
2024-01-05T06:18:05.913Z,39.80
2024-01-05T06:20:32.743Z,33.10
2024-01-05T06:22:59.514Z,34.00
2024-01-05T06:25:26.332Z,33.03
2024-01-05T06:27:54.503Z,31.67
2024-01-05T06:30:21.430Z,38.60
2024-01-05T06:32:48.238Z,41.77
2024-01-05T06:35:15.049Z,41.20
2024-01-05T06:37:41.790Z,40.43
2024-01-05T06:40:09.300Z,42.47
2024-01-05T06:42:36.026Z,34.83
2024-01-05T06:45:02.933Z,31.47
2024-01-05T06:47:29.735Z,35.73
2024-01-05T06:49:56.750Z,32.50
2024-01-05T06:52:23.543Z,26.20
2024-01-05T06:54:50.260Z,31.10
2024-01-05T06:57:17.038Z,33.97
2024-01-05T06:59:43.719Z,40.57
2024-01-05T07:02:10.464Z,43.17
2024-01-05T07:04:39.757Z,38.63
2024-01-05T07:07:06.404Z,37.58
2024-01-05T07:09:33.300Z,39.58
2024-01-05T07:12:00.951Z,39.13
2024-01-05T07:14:29.013Z,33.42
2024-01-05T07:16:57.350Z,28.55
2024-01-05T07:19:24.260Z,32.33
2024-01-05T07:21:51.291Z,31.70
2024-01-05T07:24:20.024Z,31.13
2024-01-05T07:26:47.071Z,26.63
2024-01-05T07:29:13.810Z,27.27
2024-01-05T07:31:40.802Z,30.13
2024-01-05T07:34:08.592Z,28.63
2024-01-05T07:36:36.483Z,29.75
2024-01-05T07:39:04.671Z,33.50
2024-01-05T07:41:31.436Z,31.45
2024-01-05T07:43:58.576Z,32.83
2024-01-05T07:46:28.361Z,30.02
2024-01-05T07:48:56.102Z,31.70
2024-01-05T07:51:23.596Z,30.75
2024-01-05T07:53:50.459Z,35.60
2024-01-05T07:56:18.811Z,50.03
2024-01-05T07:58:46.103Z,45.05
2024-01-05T08:01:19.561Z,33.28
2024-01-05T08:03:47.193Z,28.42
2024-01-05T08:06:17.416Z,31.13
2024-01-05T08:08:48.839Z,36.92
2024-01-05T08:11:16.022Z,39.20
2024-01-05T08:13:44.057Z,41.65
2024-01-05T08:16:11.496Z,39.88
2024-01-05T08:18:40.625Z,40.08
2024-01-05T08:21:07.426Z,40.33
2024-01-05T08:23:34.874Z,36.75
2024-01-05T08:26:04.871Z,35.97
2024-01-05T08:28:31.870Z,33.97
2024-01-05T08:30:59.579Z,40.13
2024-01-05T08:33:26.770Z,42.38
2024-01-05T08:35:53.660Z,38.75
2024-01-05T08:38:20.481Z,33.00
2024-01-05T08:40:47.465Z,33.00
2024-01-05T08:43:14.244Z,33.25
2024-01-05T08:45:41.130Z,33.33
2024-01-05T08:48:08.067Z,31.48
2024-01-05T08:50:36.321Z,27.10
2024-01-05T08:53:03.377Z,17.90
2024-01-05T08:55:30.433Z,21.13
2024-01-05T08:57:58.492Z,18.75
2024-01-05T09:00:26.294Z,24.40
2024-01-05T09:02:53.376Z,24.95
2024-01-05T09:05:20.598Z,29.05
2024-01-05T09:07:48.978Z,27.85
2024-01-05T09:10:16.015Z,32.08
2024-01-05T09:12:42.988Z,28.17
2024-01-05T09:15:10.246Z,29.13
2024-01-05T09:17:39.146Z,32.22
2024-01-05T09:20:06.689Z,34.10
2024-01-05T09:22:35.792Z,26.90
2024-01-05T09:25:02.515Z,27.38
2024-01-05T09:27:29.575Z,18.17
2024-01-05T09:29:56.345Z,31.00
2024-01-05T09:32:23.717Z,35.47
2024-01-05T09:34:50.986Z,40.83
2024-01-05T09:37:17.794Z,34.75
2024-01-05T09:39:44.527Z,26.50
2024-01-05T09:42:11.582Z,23.05
2024-01-05T09:44:38.581Z,22.55
2024-01-05T09:47:05.858Z,13.38
2024-01-05T09:49:36.901Z,10.80
2024-01-05T09:52:04.123Z,7.68
2024-01-05T09:54:31.052Z,9.13
2024-01-05T09:56:58.023Z,4.50
2024-01-05T09:59:26.939Z,9.52
2024-01-05T10:01:55.221Z,3.75
2024-01-05T10:04:22.061Z,2.50
2024-01-05T10:06:59.983Z,1.70
2024-01-05T10:09:26.752Z,4.80
2024-01-05T10:11:53.482Z,6.97
2024-01-05T10:14:26.327Z,5.13
2024-01-05T10:17:08.723Z,2.90
2024-01-05T10:19:36.550Z,3.28
2024-01-05T10:22:16.066Z,5.15
2024-01-05T10:24:43.686Z,5.00
2024-01-05T10:27:12.856Z,4.28
2024-01-05T10:29:44.999Z,5.18
2024-01-05T10:32:21.876Z,4.70
2024-01-05T10:34:51.965Z,7.80
2024-01-05T10:37:21.223Z,4.25
2024-01-05T10:39:54.206Z,5.03
2024-01-05T10:42:30.903Z,3.58
2024-01-05T10:44:59.854Z,5.15
2024-01-05T10:47:28.458Z,14.38
2024-01-05T10:49:57.847Z,13.70
2024-01-05T10:52:32.591Z,10.55
2024-01-05T10:55:04.434Z,9.32
2024-01-05T10:57:33.255Z,12.10
2024-01-05T11:00:00.694Z,14.50
2024-01-05T11:03:05.662Z,12.57
2024-01-05T11:05:32.812Z,10.10
2024-01-05T11:08:02.234Z,8.15
2024-01-05T11:10:40.600Z,8.57
2024-01-05T11:13:48.879Z,9.63
2024-01-05T11:16:33.345Z,13.13
2024-01-05T11:19:00.254Z,15.43
2024-01-05T11:21:56.494Z,9.65
2024-01-05T11:24:25.263Z,6.63
2024-01-05T11:26:53.444Z,2.15
2024-01-05T11:29:52.654Z,3.92
2024-01-05T11:32:46.782Z,3.55
2024-01-05T11:35:22.472Z,3.55
2024-01-05T11:37:49.922Z,1.40
2024-01-05T11:40:37.312Z,3.25
2024-01-05T11:43:30.175Z,2.03
2024-01-05T11:45:57.347Z,1.20
2024-01-05T11:48:37.378Z,1.35
2024-01-05T11:51:08.373Z,6.15
2024-01-05T11:53:35.291Z,3.10
2024-01-05T11:56:04.628Z,0.80
2024-01-05T11:58:33.452Z,0.88
2024-01-05T12:01:01.516Z,1.83
2024-01-05T12:03:28.810Z,1.05
2024-01-05T12:06:01.932Z,3.65
2024-01-05T12:08:29.379Z,6.07
2024-01-05T12:11:04.145Z,2.35
2024-01-05T12:13:34.256Z,2.10
2024-01-05T12:16:03.926Z,6.40
2024-01-05T12:18:37.770Z,2.17
2024-01-05T12:21:07.961Z,0.60
2024-01-05T12:23:35.762Z,0.43
2024-01-05T12:26:04.972Z,1.45
2024-01-05T12:28:36.093Z,1.20
2024-01-05T12:31:04.588Z,2.95
2024-01-05T12:33:34.381Z,1.00
2024-01-05T12:36:01.192Z,1.10
2024-01-05T12:38:34.398Z,3.67
2024-01-05T12:41:18.719Z,0.28
2024-01-05T12:43:51.463Z,0.20
2024-01-05T12:46:20.195Z,0.50
2024-01-05T12:48:47.208Z,0.30
2024-01-05T12:51:21.704Z,0.63
2024-01-05T12:53:58.717Z,1.70
2024-01-05T12:56:27.966Z,2.67
2024-01-05T12:58:54.681Z,3.10
2024-01-05T13:01:23.675Z,1.92
2024-01-05T13:03:57.261Z,0.98
2024-01-05T13:06:27.150Z,3.40
2024-01-05T13:08:54.441Z,0.65
2024-01-05T13:11:22.238Z,1.10
2024-01-05T13:13:54.124Z,1.55
2024-01-05T13:16:21.489Z,1.30
2024-01-05T13:18:49.003Z,2.90
2024-01-05T13:21:16.496Z,2.63
2024-01-05T13:23:45.736Z,1.40
2024-01-05T13:26:12.627Z,0.70
2024-01-05T13:28:41.644Z,1.17
2024-01-05T13:31:08.878Z,1.40
2024-01-05T13:33:36.368Z,5.78
2024-01-05T13:36:03.615Z,3.67
2024-01-05T13:38:30.560Z,1.77
2024-01-05T13:40:57.540Z,1.17
2024-01-05T13:43:26.286Z,6.43
2024-01-05T13:45:55.807Z,3.30
2024-01-05T13:48:23.178Z,2.58
2024-01-05T13:50:50.666Z,0.68
2024-01-05T13:53:17.538Z,10.52
2024-01-05T13:55:44.513Z,6.32
2024-01-05T13:58:11.272Z,1.85
2024-01-05T14:00:38.149Z,2.42
2024-01-05T14:03:05.610Z,1.40
2024-01-05T14:05:32.660Z,27.10
2024-01-05T14:08:00.587Z,1.33
2024-01-05T14:10:28.176Z,1.15
2024-01-05T14:12:56.935Z,2.92
2024-01-05T14:15:26.143Z,4.57
2024-01-05T14:17:53.082Z,1.90
2024-01-05T14:20:20.264Z,5.65
2024-01-05T14:22:47.137Z,3.47
2024-01-05T14:25:14.015Z,2.10
2024-01-05T14:27:41.769Z,3.22
2024-01-05T14:30:09.666Z,2.45
2024-01-05T14:32:36.601Z,8.98
2024-01-05T14:35:06.865Z,4.20
2024-01-05T14:37:34.209Z,3.00
2024-01-05T14:40:01.076Z,2.90
2024-01-05T14:42:27.750Z,4.13
2024-01-05T14:44:55.152Z,1.48
2024-01-05T14:47:22.037Z,2.30
2024-01-05T14:49:49.475Z,13.57
2024-01-05T14:52:16.334Z,6.45
2024-01-05T14:54:43.582Z,8.32
2024-01-05T14:57:10.332Z,10.10
2024-01-05T14:59:37.796Z,9.20
2024-01-05T15:02:04.531Z,9.13
2024-01-05T15:04:32.874Z,9.60
2024-01-05T15:07:01.855Z,7.40
2024-01-05T15:09:28.984Z,10.15
2024-01-05T15:11:55.720Z,9.43
2024-01-05T15:14:22.523Z,20.92
2024-01-05T15:16:51.514Z,32.08
2024-01-05T15:19:19.632Z,23.90
2024-01-05T15:21:46.593Z,25.73
2024-01-05T15:24:13.726Z,29.48
2024-01-05T15:26:47.090Z,29.13
2024-01-05T15:29:15.069Z,32.22
2024-01-05T15:31:42.056Z,34.50
2024-01-05T15:34:09.181Z,31.70
2024-01-05T15:36:36.214Z,29.98
2024-01-05T15:39:03.414Z,31.55
2024-01-05T15:41:30.257Z,44.10
2024-01-05T15:43:58.688Z,40.85
2024-01-05T15:46:28.164Z,46.63
2024-01-05T15:48:56.515Z,54.97
2024-01-05T15:51:26.660Z,45.00
2024-01-05T15:53:56.024Z,47.80
2024-01-05T15:56:24.395Z,52.97
2024-01-05T15:58:53.477Z,55.28
2024-01-05T16:01:20.333Z,41.40
2024-01-05T16:03:48.616Z,57.47
2024-01-05T16:06:20.298Z,61.10
2024-01-05T16:08:49.589Z,57.47
2024-01-05T16:11:17.487Z,50.88
2024-01-05T16:13:44.710Z,57.38
2024-01-05T16:16:16.100Z,60.85
2024-01-05T16:18:45.604Z,66.18
2024-01-05T16:21:13.214Z,66.63
2024-01-05T16:23:41.259Z,63.55
2024-01-05T16:26:08.374Z,67.95
2024-01-05T16:28:35.129Z,70.30
2024-01-05T16:31:01.976Z,83.75
2024-01-05T16:33:31.037Z,48.45
2024-01-05T16:35:58.504Z,58.38
2024-01-05T16:38:25.321Z,47.90
2024-01-05T16:40:56.109Z,41.05
2024-01-05T16:43:22.890Z,32.22
2024-01-05T16:45:49.776Z,48.47
2024-01-05T16:48:17.633Z,46.70
2024-01-05T16:50:45.867Z,49.05
2024-01-05T16:53:12.793Z,48.60
2024-01-05T16:55:39.514Z,43.75
2024-01-05T16:58:09.120Z,55.22
2024-01-05T17:00:36.205Z,49.63
2024-01-05T17:03:04.688Z,54.03
2024-01-05T17:05:31.770Z,48.88
2024-01-05T17:07:58.609Z,50.72
2024-01-05T17:10:25.294Z,48.22
2024-01-05T17:12:52.830Z,51.08
2024-01-05T17:15:21.231Z,46.97
2024-01-05T17:17:48.471Z,48.40
2024-01-05T17:20:22.153Z,56.15
2024-01-05T17:22:52.689Z,63.50
2024-01-05T17:25:19.386Z,68.15
2024-01-05T17:27:47.172Z,67.25
2024-01-05T17:30:17.071Z,64.65
2024-01-05T17:32:48.714Z,62.00
2024-01-05T17:35:15.877Z,94.47
2024-01-05T17:37:42.666Z,80.10
2024-01-05T17:40:09.894Z,78.70
2024-01-05T17:42:36.626Z,74.45
2024-01-05T17:45:04.014Z,71.97
2024-01-05T17:47:31.582Z,77.22
2024-01-05T17:49:59.413Z,74.68
2024-01-05T17:52:27.235Z,69.32
2024-01-05T17:54:54.609Z,50.28
2024-01-05T17:57:25.242Z,57.92
2024-01-05T17:59:52.914Z,63.47
2024-01-05T18:02:20.036Z,49.55
2024-01-05T18:04:46.943Z,58.63
2024-01-05T18:07:18.474Z,59.53
2024-01-05T18:09:46.527Z,64.30
2024-01-05T18:12:13.411Z,57.38
2024-01-05T18:14:40.406Z,68.32
2024-01-05T18:17:07.398Z,61.55
2024-01-05T18:19:34.729Z,69.32
2024-01-05T18:22:02.232Z,66.47
2024-01-05T18:24:29.828Z,63.08
2024-01-05T18:26:56.939Z,75.85
2024-01-05T18:29:29.160Z,79.82
2024-01-05T18:31:58.265Z,74.32
2024-01-05T18:34:26.956Z,71.35
2024-01-05T18:36:54.400Z,39.83
2024-01-05T18:39:21.672Z,39.22
2024-01-05T18:41:48.723Z,28.45
2024-01-05T18:44:17.553Z,35.63
2024-01-05T18:46:46.394Z,35.30
2024-01-05T18:49:17.332Z,37.53
2024-01-05T18:51:44.088Z,40.80
2024-01-05T18:54:10.862Z,45.28
2024-01-05T18:56:39.415Z,64.50
2024-01-05T18:59:06.420Z,45.30
2024-01-05T19:01:33.436Z,41.15
2024-01-05T19:04:00.662Z,42.25
2024-01-05T19:06:28.284Z,50.00
2024-01-05T19:08:55.152Z,61.47
2024-01-05T19:11:22.337Z,44.33
2024-01-05T19:13:49.301Z,49.97
2024-01-05T19:16:20.999Z,51.10
2024-01-05T19:18:48.096Z,60.35
2024-01-05T19:21:15.852Z,59.42
2024-01-05T19:23:43.343Z,61.45
2024-01-05T19:26:14.368Z,62.80
2024-01-05T19:28:41.134Z,56.42
2024-01-05T19:31:08.405Z,57.00
2024-01-05T19:33:37.470Z,57.38
2024-01-05T19:36:13.942Z,69.60
2024-01-05T19:38:43.348Z,72.13
2024-01-05T19:41:13.173Z,66.05
2024-01-05T19:43:40.462Z,66.32
2024-01-05T19:46:08.543Z,74.85
2024-01-05T19:48:36.804Z,75.97
2024-01-05T19:51:04.966Z,80.57
2024-01-05T19:53:33.309Z,93.13
2024-01-05T19:56:01.225Z,87.63
2024-01-05T19:58:27.979Z,97.25
2024-01-05T20:00:55.329Z,98.63
2024-01-05T20:03:23.344Z,84.25
2024-01-05T20:05:52.318Z,96.47
2024-01-05T20:08:19.142Z,81.32
2024-01-05T20:10:45.914Z,90.88
2024-01-05T20:13:14.107Z,81.65
2024-01-05T20:15:42.197Z,86.30
2024-01-05T20:18:09.277Z,81.05
2024-01-05T20:20:36.544Z,82.45
2024-01-05T20:23:03.529Z,87.32
2024-01-05T20:25:31.599Z,79.68
2024-01-05T20:27:58.342Z,79.28
2024-01-05T20:30:27.743Z,66.30
2024-01-05T20:32:56.773Z,62.00
2024-01-05T20:35:23.475Z,60.90
2024-01-05T20:37:51.832Z,55.72
2024-01-05T20:40:19.345Z,55.67
2024-01-05T20:42:47.216Z,52.15
2024-01-05T20:45:14.907Z,51.60
2024-01-05T20:47:43.105Z,49.40
2024-01-05T20:50:10.595Z,49.53
2024-01-05T20:52:37.467Z,49.45
2024-01-05T20:55:04.439Z,57.47
2024-01-05T20:57:32.742Z,58.15
2024-01-05T21:00:00.615Z,54.38
2024-01-05T21:02:27.438Z,55.72
2024-01-05T21:04:54.569Z,51.30
2024-01-05T21:07:22.921Z,52.58
2024-01-05T21:09:49.971Z,53.33
2024-01-05T21:12:16.924Z,56.42
2024-01-05T21:14:44.205Z,55.92
2024-01-05T21:17:10.947Z,57.60
2024-01-05T21:19:41.360Z,47.65
2024-01-05T21:22:08.452Z,35.88
2024-01-05T21:24:42.830Z,35.95
2024-01-05T21:27:13.136Z,33.90
2024-01-05T21:29:42.918Z,36.20
2024-01-05T21:32:09.929Z,34.00
2024-01-05T21:34:41.648Z,35.30
2024-01-05T21:37:08.912Z,35.78
2024-01-05T21:39:36.132Z,32.97
2024-01-05T21:42:03.604Z,34.08
2024-01-05T21:44:30.311Z,41.90
2024-01-05T21:46:59.460Z,43.40
2024-01-05T21:49:27.039Z,41.03
2024-01-05T21:51:55.222Z,44.13
2024-01-05T21:54:22.545Z,42.75
2024-01-05T21:56:49.492Z,42.75
2024-01-05T21:59:16.271Z,22.57
2024-01-05T22:01:47.235Z,23.25
2024-01-05T22:04:14.644Z,12.65
2024-01-05T22:06:41.693Z,12.75
2024-01-05T22:09:12.592Z,18.92
2024-01-05T22:11:44.114Z,12.00
2024-01-05T22:14:14.614Z,17.98
2024-01-05T22:16:42.127Z,8.68
2024-01-05T22:19:11.624Z,13.48
2024-01-05T22:21:38.508Z,9.25
2024-01-05T22:24:05.884Z,8.63
2024-01-05T22:26:35.991Z,4.78
2024-01-05T22:29:06.784Z,13.57
2024-01-05T22:31:34.482Z,3.17
2024-01-05T22:34:01.645Z,2.60
2024-01-05T22:36:28.635Z,8.52
2024-01-05T22:38:55.434Z,5.78
2024-01-05T22:41:23.987Z,3.80
2024-01-05T22:43:53.094Z,26.17
2024-01-05T22:46:21.969Z,21.02
2024-01-05T22:48:49.006Z,23.90
2024-01-05T22:51:30.707Z,19.80
2024-01-05T22:53:57.556Z,12.63
2024-01-05T22:56:24.408Z,26.25
2024-01-05T22:58:51.567Z,24.08
2024-01-05T23:01:24.017Z,7.57
2024-01-05T23:03:54.842Z,3.70
2024-01-05T23:06:26.622Z,20.08
2024-01-05T23:08:55.887Z,20.55
2024-01-05T23:11:24.115Z,15.40
2024-01-05T23:13:50.886Z,23.65
2024-01-05T23:16:23.723Z,8.60
2024-01-05T23:18:50.570Z,19.58
2024-01-05T23:21:17.522Z,23.88
2024-01-05T23:23:44.272Z,15.68
2024-01-05T23:26:18.281Z,16.50
2024-01-05T23:28:45.326Z,25.83
2024-01-05T23:31:12.318Z,19.00
2024-01-05T23:33:39.235Z,20.80
2024-01-05T23:36:06.354Z,18.55
2024-01-05T23:38:33.385Z,17.02
2024-01-05T23:41:00.374Z,15.50
2024-01-05T23:43:27.743Z,14.80
2024-01-05T23:45:54.558Z,19.67
2024-01-05T23:48:21.480Z,18.13
2024-01-05T23:50:48.364Z,2.33
2024-01-05T23:53:15.053Z,19.52
2024-01-05T23:55:42.592Z,29.60
2024-01-05T23:58:10.242Z,23.20
